Time;durP1;ratioP1;P1;durP2;ratioP2;P2;SDS_P1;SDS_P2;PMS_P1;PMS_P2;Temp;Humidity;BMP_temperature;BMP_pressure;BME280_temperature;BME280_humidity;BME280_pressure;Samples;Min_cycle;Max_cycle;Signal;HPM_P1;HPM_P2
2022/12/06 00:00:25;;;;;;;13.43;6.35;;;5.30;99.90;;;;;;5087748;28;20131;-66
2022/12/06 00:02:50;;;;;;;12.18;5.90;;;5.30;99.90;;;;;;5088812;28;20047;-66
2022/12/06 00:05:16;;;;;;;14.35;6.43;;;5.40;99.90;;;;;;5082340;28;20115;-65
2022/12/06 00:07:41;;;;;;;16.17;5.75;;;5.40;99.90;;;;;;5083206;28;20087;-66
2022/12/06 00:10:07;;;;;;;16.83;6.05;;;5.40;99.90;;;;;;5086081;28;20034;-66
2022/12/06 00:12:33;;;;;;;13.85;5.57;;;5.40;99.90;;;;;;5089549;28;20461;-66
2022/12/06 00:14:58;;;;;;;14.38;5.47;;;5.30;99.90;;;;;;5088055;28;20489;-66
2022/12/06 00:17:24;;;;;;;9.13;4.72;;;5.30;99.90;;;;;;5085481;28;20060;-66
2022/12/06 00:19:49;;;;;;;12.23;4.93;;;5.30;99.90;;;;;;5090036;28;20051;-66
2022/12/06 00:22:15;;;;;;;10.77;5.47;;;5.30;99.90;;;;;;5089647;28;20042;-66
2022/12/06 00:24:41;;;;;;;12.10;5.63;;;5.30;99.90;;;;;;5090452;28;20394;-66
2022/12/06 00:27:07;;;;;;;13.27;5.93;;;5.30;99.90;;;;;;5089590;28;20056;-66
2022/12/06 00:29:33;;;;;;;12.55;5.32;;;5.30;99.90;;;;;;5091139;28;20576;-66
2022/12/06 00:31:58;;;;;;;13.93;5.47;;;5.30;99.90;;;;;;5094173;22;20035;-71
2022/12/06 00:34:24;;;;;;;11.98;6.20;;;5.30;99.90;;;;;;5069936;28;20028;-72
2022/12/06 00:36:50;;;;;;;14.68;5.93;;;5.30;99.90;;;;;;5068387;28;20060;-72
2022/12/06 00:39:16;;;;;;;12.68;5.63;;;5.30;99.90;;;;;;5069570;28;20033;-72
2022/12/06 00:41:42;;;;;;;9.77;5.03;;;5.40;99.90;;;;;;5061396;28;20040;-71
2022/12/06 00:44:09;;;;;;;16.95;5.57;;;5.30;99.90;;;;;;5064842;28;20716;-72
2022/12/06 00:46:36;;;;;;;14.35;5.80;;;5.30;99.90;;;;;;5067144;28;20040;-71
2022/12/06 00:49:04;;;;;;;13.82;5.40;;;5.30;99.90;;;;;;5069464;28;20028;-72
2022/12/06 00:51:32;;;;;;;14.50;5.95;;;5.30;99.90;;;;;;5068463;28;20067;-72
2022/12/06 00:53:58;;;;;;;12.82;5.40;;;5.30;99.90;;;;;;5073070;28;20075;-71
2022/12/06 00:56:23;;;;;;;11.43;5.43;;;5.30;99.90;;;;;;5072738;28;20060;-72
2022/12/06 00:58:49;;;;;;;15.00;6.10;;;5.30;99.90;;;;;;5073030;28;20419;-72
2022/12/06 01:01:29;;;;;;;14.18;6.10;;;5.40;99.90;;;;;;5070852;28;20490;-72
2022/12/06 01:04:00;;;;;;;15.68;5.95;;;5.40;99.90;;;;;;5072890;28;20045;-72
2022/12/06 01:06:29;;;;;;;13.60;5.50;;;5.40;99.90;;;;;;5071687;28;20040;-72
2022/12/06 01:08:57;;;;;;;15.23;5.55;;;5.30;99.90;;;;;;5073224;28;20033;-72
2022/12/06 01:11:23;;;;;;;15.27;4.80;;;5.40;99.90;;;;;;5074188;28;20048;-72
2022/12/06 01:13:50;;;;;;;16.15;5.13;;;5.40;99.90;;;;;;5070663;28;20371;-72
2022/12/06 01:16:19;;;;;;;11.40;5.05;;;5.30;99.90;;;;;;5071576;28;20040;-72
2022/12/06 01:18:45;;;;;;;8.75;4.95;;;5.30;99.90;;;;;;5072345;28;20119;-72
2022/12/06 01:21:13;;;;;;;10.27;4.55;;;5.30;99.90;;;;;;5074003;28;20450;-71
2022/12/06 01:23:39;;;;;;;13.90;4.72;;;5.30;99.90;;;;;;5072804;28;20497;-72
2022/12/06 01:26:06;;;;;;;11.45;4.80;;;5.30;99.90;;;;;;5072004;28;20032;-72
2022/12/06 01:28:31;;;;;;;12.20;4.65;;;5.30;99.90;;;;;;5072158;28;20037;-72
2022/12/06 01:30:57;;;;;;;11.57;4.72;;;5.30;99.90;;;;;;5069021;28;20047;-71
2022/12/06 01:33:23;;;;;;;9.82;4.75;;;5.30;99.90;;;;;;5073800;28;20040;-71
2022/12/06 01:35:49;;;;;;;10.38;4.78;;;5.30;99.90;;;;;;5071205;28;20036;-72
2022/12/06 01:38:14;;;;;;;12.90;4.53;;;5.30;99.90;;;;;;5069331;28;20551;-71
2022/12/06 01:40:42;;;;;;;9.48;4.70;;;5.30;99.90;;;;;;5068375;28;20071;-72
2022/12/06 01:43:37;;;;;;;10.82;4.85;;;5.30;99.90;;;;;;5072083;28;20037;-72
2022/12/06 01:46:25;;;;;;;13.82;4.38;;;5.20;99.90;;;;;;5070831;28;20044;-72
2022/12/06 01:48:57;;;;;;;10.80;4.47;;;5.20;99.90;;;;;;5072886;28;20037;-72
2022/12/06 01:51:23;;;;;;;12.77;4.40;;;5.30;99.90;;;;;;5073695;28;20085;-72
2022/12/06 01:53:51;;;;;;;10.40;4.10;;;5.20;99.90;;;;;;5070289;28;20024;-72
2022/12/06 01:56:18;;;;;;;14.60;4.30;;;5.30;99.90;;;;;;5071008;28;20045;-72
2022/12/06 01:58:45;;;;;;;10.63;3.75;;;5.20;99.90;;;;;;5072666;28;20134;-72
2022/12/06 02:01:11;;;;;;;11.30;3.85;;;5.30;99.90;;;;;;5072461;28;20063;-71
2022/12/06 02:03:37;;;;;;;11.70;4.53;;;5.30;99.90;;;;;;5070786;28;20033;-72
2022/12/06 02:06:06;;;;;;;11.05;4.22;;;5.30;99.90;;;;;;5071001;28;20752;-72
2022/12/06 02:08:33;;;;;;;11.95;4.20;;;5.30;99.90;;;;;;5070764;28;20555;-72
2022/12/06 02:11:01;;;;;;;11.18;4.38;;;5.30;99.90;;;;;;5071928;28;20074;-72
2022/12/06 02:13:27;;;;;;;11.45;4.38;;;5.30;99.90;;;;;;5071975;28;20028;-72
2022/12/06 02:16:31;;;;;;;10.75;4.00;;;5.30;99.90;;;;;;5072872;28;20047;-72
2022/12/06 02:19:35;;;;;;;8.98;4.22;;;5.30;99.90;;;;;;5071618;28;20036;-72
2022/12/06 02:22:30;;;;;;;8.57;3.90;;;5.30;99.90;;;;;;5057561;28;20040;-71
2022/12/06 02:25:17;;;;;;;12.00;4.55;;;5.30;99.90;;;;;;5070834;28;20080;-72
2022/12/06 02:27:49;;;;;;;9.48;4.38;;;5.20;99.90;;;;;;5068985;28;20398;-72
2022/12/06 02:30:48;;;;;;;10.05;4.22;;;5.20;99.90;;;;;;5072801;28;20064;-72
2022/12/06 02:33:48;;;;;;;9.05;4.78;;;5.20;99.90;;;;;;5067454;28;20051;-72
2022/12/06 02:36:19;;;;;;;8.60;3.83;;;5.20;99.90;;;;;;5069494;28;20032;-72
2022/12/06 02:38:50;;;;;;;12.48;4.00;;;5.20;99.90;;;;;;5072407;28;20041;-72
2022/12/06 02:41:37;;;;;;;7.80;4.05;;;5.20;99.90;;;;;;5070748;28;20086;-71
2022/12/06 02:44:11;;;;;;;8.90;4.18;;;5.20;99.90;;;;;;5062887;28;20462;-71
2022/12/06 02:46:40;;;;;;;8.23;3.38;;;5.20;99.90;;;;;;5071214;28;20123;-71
2022/12/06 02:49:08;;;;;;;7.22;3.90;;;5.20;99.90;;;;;;5064338;28;20037;-71
2022/12/06 02:51:36;;;;;;;6.35;3.00;;;5.20;99.90;;;;;;5069247;28;20036;-71
2022/12/06 02:54:06;;;;;;;9.63;3.35;;;5.20;99.90;;;;;;5071156;28;20048;-71
2022/12/06 02:56:33;;;;;;;7.68;3.40;;;5.20;99.90;;;;;;5071195;28;20123;-71
2022/12/06 02:58:58;;;;;;;8.38;3.15;;;5.20;99.90;;;;;;5071252;28;20040;-70
2022/12/06 03:01:28;;;;;;;8.20;3.20;;;5.20;99.90;;;;;;5075496;28;20105;-71
2022/12/06 03:04:08;;;;;;;5.57;3.20;;;5.20;99.90;;;;;;5086541;28;20052;-71
2022/12/06 03:07:13;;;;;;;9.82;2.78;;;5.20;99.90;;;;;;5066790;28;20040;-71
2022/12/06 03:09:41;;;;;;;9.50;2.95;;;5.20;99.90;;;;;;5026560;28;20501;-70
2022/12/06 03:12:44;;;;;;;6.00;2.97;;;5.20;99.90;;;;;;5070765;28;20036;-71
2022/12/06 03:15:36;;;;;;;6.18;3.17;;;5.20;99.90;;;;;;5064851;28;20503;-70
2022/12/06 03:18:18;;;;;;;6.53;2.80;;;5.20;99.90;;;;;;5063656;28;20091;-70
2022/12/06 03:20:57;;;;;;;11.07;3.15;;;5.20;99.90;;;;;;5069734;28;20060;-70
2022/12/06 03:23:30;;;;;;;8.73;2.97;;;5.20;99.90;;;;;;5069367;28;20490;-70
2022/12/06 03:25:59;;;;;;;7.63;2.75;;;5.10;99.90;;;;;;5069167;28;20047;-71
2022/12/06 03:28:26;;;;;;;6.53;2.78;;;5.10;99.90;;;;;;5070855;28;20032;-70
2022/12/06 03:30:56;;;;;;;4.45;2.25;;;5.10;99.90;;;;;;5071265;28;20079;-70
2022/12/06 03:33:24;;;;;;;5.47;2.70;;;5.10;99.90;;;;;;5069106;28;20036;-71
2022/12/06 03:35:51;;;;;;;6.43;2.95;;;5.10;99.90;;;;;;5070753;28;20033;-71
2022/12/06 03:38:26;;;;;;;6.85;2.65;;;5.10;99.90;;;;;;5071371;28;20047;-71
2022/12/06 03:40:54;;;;;;;8.77;2.60;;;5.10;99.90;;;;;;5070075;28;20045;-70
2022/12/06 03:43:20;;;;;;;6.60;2.63;;;5.10;99.90;;;;;;5068830;28;20164;-71
2022/12/06 03:45:54;;;;;;;7.13;2.60;;;5.10;99.90;;;;;;5070674;28;20117;-71
2022/12/06 03:48:29;;;;;;;5.75;2.55;;;5.10;99.90;;;;;;5069462;28;20032;-71
2022/12/06 03:51:03;;;;;;;5.90;2.95;;;5.10;99.90;;;;;;5068801;28;20040;-71
2022/12/06 03:53:29;;;;;;;6.38;2.80;;;5.00;99.90;;;;;;5070403;28;20044;-71
2022/12/06 03:55:54;;;;;;;5.18;2.60;;;5.00;99.90;;;;;;5071062;28;20414;-71
2022/12/06 03:58:20;;;;;;;8.10;2.55;;;5.00;99.90;;;;;;5070282;28;20040;-71
2022/12/06 04:00:46;;;;;;;4.93;2.47;;;5.00;99.90;;;;;;5068819;28;20042;-71
2022/12/06 04:03:12;;;;;;;4.32;2.10;;;5.00;99.90;;;;;;5069770;28;20087;-71
2022/12/06 04:05:38;;;;;;;5.50;2.08;;;5.00;99.90;;;;;;5064226;28;20042;-71
2022/12/06 04:08:03;;;;;;;6.40;1.95;;;5.00;99.90;;;;;;5070696;28;20033;-71
2022/12/06 04:10:29;;;;;;;4.03;1.92;;;5.00;99.90;;;;;;5071076;28;20438;-71
2022/12/06 04:13:01;;;;;;;4.40;1.83;;;4.90;99.90;;;;;;5071252;28;20035;-71
2022/12/06 04:15:38;;;;;;;4.97;1.60;;;4.90;99.90;;;;;;5069614;28;20032;-71
2022/12/06 04:18:17;;;;;;;5.18;2.08;;;4.90;99.90;;;;;;5065078;28;20090;-71
2022/12/06 04:23:47;;;;;;;5.75;1.65;;;4.90;99.90;;;;;;5069783;28;20848;-71
2022/12/06 04:26:16;;;;;;;7.28;2.00;;;4.90;99.90;;;;;;5068873;28;20048;-71
2022/12/06 04:39:39;;;;;;;4.43;1.70;;;4.90;99.90;;;;;;5074049;28;20043;-71
2022/12/06 04:45:09;;;;;;;4.50;2.10;;;5.00;99.90;;;;;;5004599;28;20038;-71
2022/12/06 04:47:34;;;;;;;4.35;1.60;;;5.00;99.90;;;;;;5016246;28;20034;-71
2022/12/06 04:50:00;;;;;;;3.80;1.88;;;5.00;99.90;;;;;;5031917;28;20040;-71
2022/12/06 04:52:26;;;;;;;5.18;1.80;;;4.90;99.90;;;;;;5069034;28;20055;-71
2022/12/06 04:54:51;;;;;;;4.75;1.98;;;5.00;99.90;;;;;;5072554;28;20036;-71
2022/12/06 04:57:17;;;;;;;3.83;2.13;;;4.90;99.90;;;;;;5074468;28;20291;-71
2022/12/06 04:59:45;;;;;;;5.10;1.90;;;4.90;99.90;;;;;;5072808;28;20044;-72
2022/12/06 05:02:13;;;;;;;4.50;2.00;;;4.90;99.90;;;;;;5069016;28;20183;-71
2022/12/06 05:04:38;;;;;;;5.50;2.00;;;4.90;99.90;;;;;;5067476;28;20085;-71
2022/12/06 05:07:04;;;;;;;3.67;1.77;;;4.90;99.90;;;;;;5072522;28;20485;-71
2022/12/06 05:09:30;;;;;;;3.58;1.70;;;4.90;99.90;;;;;;5074186;28;20039;-71
2022/12/06 05:11:55;;;;;;;6.25;1.63;;;4.90;99.90;;;;;;5073035;28;20029;-71
2022/12/06 05:14:21;;;;;;;2.95;1.65;;;4.90;99.90;;;;;;5073409;28;20060;-72
2022/12/06 05:16:47;;;;;;;3.80;2.08;;;4.90;99.90;;;;;;5067447;28;20041;-72
2022/12/06 05:19:13;;;;;;;4.28;1.90;;;4.90;99.90;;;;;;5071715;28;20383;-72
2022/12/06 05:21:39;;;;;;;4.28;1.85;;;4.90;99.90;;;;;;5069970;28;20075;-71
2022/12/06 05:24:05;;;;;;;5.47;1.90;;;4.90;99.90;;;;;;5070939;28;20028;-72
2022/12/06 05:26:30;;;;;;;5.72;1.95;;;4.80;99.90;;;;;;5073249;28;20041;-72
2022/12/06 05:28:57;;;;;;;4.50;2.10;;;4.80;99.90;;;;;;5070454;28;20054;-72
2022/12/06 05:31:24;;;;;;;5.88;1.73;;;4.80;99.90;;;;;;5070458;28;20032;-72
2022/12/06 05:33:50;;;;;;;7.80;1.95;;;4.80;99.90;;;;;;5072289;28;20043;-72
2022/12/06 05:36:19;;;;;;;4.70;2.10;;;4.80;99.90;;;;;;5073308;28;20154;-72
2022/12/06 05:38:46;;;;;;;3.55;1.85;;;4.80;99.90;;;;;;5070792;28;20115;-72
2022/12/06 05:41:12;;;;;;;5.95;2.15;;;4.80;99.90;;;;;;5070008;28;20028;-72
2022/12/06 05:43:38;;;;;;;5.78;2.60;;;4.70;99.90;;;;;;5072010;28;20036;-71
2022/12/06 05:46:03;;;;;;;6.68;3.47;;;4.70;99.90;;;;;;5072640;28;20051;-72
2022/12/06 05:48:29;;;;;;;5.88;2.78;;;4.70;99.90;;;;;;5076633;28;20036;-72
2022/12/06 05:50:55;;;;;;;6.30;2.40;;;4.70;99.90;;;;;;5070167;28;20066;-71
2022/12/06 05:53:21;;;;;;;6.25;2.60;;;4.70;99.90;;;;;;5071644;28;20032;-72
2022/12/06 05:55:46;;;;;;;8.13;2.65;;;4.70;99.90;;;;;;5067541;28;20127;-72
2022/12/06 05:58:13;;;;;;;8.13;3.08;;;4.70;99.90;;;;;;5067490;28;20036;-72
2022/12/06 06:00:38;;;;;;;6.57;2.92;;;4.70;99.90;;;;;;5065870;28;20582;-71
2022/12/06 06:03:04;;;;;;;7.78;3.30;;;4.70;99.90;;;;;;5071197;28;20111;-72
2022/12/06 06:05:30;;;;;;;6.28;2.85;;;4.70;99.90;;;;;;5071692;28;20037;-72
2022/12/06 06:07:56;;;;;;;6.13;3.10;;;4.60;99.90;;;;;;5071862;28;20071;-72
2022/12/06 06:10:22;;;;;;;8.32;3.00;;;4.60;99.90;;;;;;5069858;28;20119;-72
2022/12/06 06:12:48;;;;;;;8.48;3.13;;;4.60;99.90;;;;;;5064924;28;20032;-72
2022/12/06 06:15:14;;;;;;;4.97;2.95;;;4.60;99.90;;;;;;5071801;28;20124;-72
2022/12/06 06:17:41;;;;;;;8.63;2.90;;;4.60;99.90;;;;;;5073454;28;20127;-72
2022/12/06 06:20:10;;;;;;;6.30;3.00;;;4.60;99.90;;;;;;5071377;28;20036;-72
2022/12/06 06:22:37;;;;;;;6.72;3.33;;;4.50;99.90;;;;;;5072098;28;20582;-72
2022/12/06 06:25:04;;;;;;;5.40;2.65;;;4.50;99.90;;;;;;5071213;28;20036;-72
2022/12/06 06:27:32;;;;;;;5.40;2.70;;;4.50;99.90;;;;;;5070645;28;20616;-72
2022/12/06 06:29:58;;;;;;;8.20;3.00;;;4.50;99.90;;;;;;5067128;28;20040;-72
2022/12/06 06:32:24;;;;;;;7.03;3.10;;;4.40;99.90;;;;;;5085736;22;20041;-66
2022/12/06 06:34:49;;;;;;;6.63;2.78;;;4.40;99.90;;;;;;5061667;28;20051;-66
2022/12/06 06:37:15;;;;;;;6.32;2.88;;;4.40;99.90;;;;;;5054044;28;20036;-66
2022/12/06 06:39:40;;;;;;;4.50;2.70;;;4.40;99.90;;;;;;5069343;28;20089;-66
2022/12/06 06:42:06;;;;;;;5.32;3.20;;;4.40;99.90;;;;;;5082870;28;20153;-66
2022/12/06 06:44:32;;;;;;;7.07;3.10;;;4.40;99.90;;;;;;5084906;28;20145;-66
2022/12/06 06:46:57;;;;;;;6.97;2.85;;;4.40;99.90;;;;;;5071902;28;20029;-66
2022/12/06 06:49:23;;;;;;;7.47;3.20;;;4.40;99.90;;;;;;5070329;28;20044;-66
2022/12/06 06:51:49;;;;;;;7.80;2.97;;;4.40;99.90;;;;;;5052581;28;20032;-66
2022/12/06 06:54:15;;;;;;;6.72;3.00;;;4.40;99.90;;;;;;5069757;28;20043;-66
2022/12/06 06:56:41;;;;;;;5.20;2.80;;;4.40;99.90;;;;;;5076981;28;20044;-66
2022/12/06 06:59:06;;;;;;;5.95;2.88;;;4.40;99.90;;;;;;5072970;28;20460;-66
2022/12/06 07:01:32;;;;;;;6.00;2.95;;;4.40;99.90;;;;;;5070955;28;20028;-66
2022/12/06 07:03:58;;;;;;;5.88;3.10;;;4.40;99.90;;;;;;5069985;28;20679;-66
2022/12/06 07:06:24;;;;;;;6.45;2.60;;;4.30;99.90;;;;;;5070697;28;20033;-66
2022/12/06 07:08:49;;;;;;;4.38;2.65;;;4.30;99.90;;;;;;5086958;28;20028;-66
2022/12/06 07:11:15;;;;;;;7.63;3.28;;;4.30;99.90;;;;;;5072218;28;20086;-66
2022/12/06 07:13:42;;;;;;;7.47;2.97;;;4.30;99.90;;;;;;5067206;28;20047;-66
2022/12/06 07:16:14;;;;;;;9.40;3.55;;;4.30;99.90;;;;;;5066153;28;20829;-66
2022/12/06 07:18:39;;;;;;;4.63;2.58;;;4.30;99.90;;;;;;5062366;28;20032;-66
2022/12/06 07:21:09;;;;;;;7.55;3.40;;;4.30;99.90;;;;;;5067318;28;20542;-66
2022/12/06 07:23:36;;;;;;;10.82;3.22;;;4.30;99.90;;;;;;5068250;28;20081;-66
2022/12/06 07:26:06;;;;;;;6.35;2.75;;;4.30;99.90;;;;;;5066078;28;20036;-66
2022/12/06 07:28:35;;;;;;;7.45;3.10;;;4.30;99.90;;;;;;5068869;28;20036;-66
2022/12/06 07:31:10;;;;;;;6.55;3.05;;;4.30;99.90;;;;;;5068793;28;20111;-65
2022/12/06 07:33:36;;;;;;;6.15;3.72;;;4.30;99.90;;;;;;5064637;28;20554;-66
2022/12/06 07:36:02;;;;;;;6.85;3.80;;;4.30;99.90;;;;;;5043529;28;20127;-66
2022/12/06 07:38:28;;;;;;;8.25;3.47;;;4.30;99.90;;;;;;5066103;28;20036;-66
2022/12/06 07:40:59;;;;;;;6.00;3.08;;;4.30;99.90;;;;;;5056443;28;20063;-66
2022/12/06 07:46:10;;;;;;;6.30;3.00;;;4.20;99.90;;;;;;5068130;28;20153;-66
2022/12/06 07:48:35;;;;;;;6.13;2.95;;;4.20;99.90;;;;;;5069904;28;20068;-66
2022/12/06 07:51:04;;;;;;;5.35;2.78;;;4.10;99.90;;;;;;5074043;28;20437;-66
2022/12/06 07:53:29;;;;;;;6.97;3.13;;;4.00;99.90;;;;;;5050383;28;20115;-66
2022/12/06 07:55:55;;;;;;;6.43;3.35;;;4.00;99.90;;;;;;5059355;28;20512;-66
2022/12/06 07:58:20;;;;;;;5.93;3.08;;;4.00;99.90;;;;;;5068758;28;20033;-66
2022/12/06 08:00:46;;;;;;;8.40;3.15;;;4.00;99.90;;;;;;5068782;28;20086;-65
2022/12/06 08:03:12;;;;;;;5.10;2.67;;;4.00;99.90;;;;;;5061382;28;20382;-66
2022/12/06 08:05:37;;;;;;;4.78;2.80;;;3.90;99.90;;;;;;5063320;28;20033;-66
2022/12/06 08:08:03;;;;;;;5.95;3.03;;;3.80;99.90;;;;;;5070497;28;20149;-66
2022/12/06 08:10:28;;;;;;;11.38;3.55;;;3.80;99.90;;;;;;5068583;28;20028;-66
2022/12/06 08:12:54;;;;;;;7.05;3.38;;;3.80;99.90;;;;;;5051273;28;20036;-66
2022/12/06 08:15:20;;;;;;;3.65;3.00;;;3.80;99.90;;;;;;5075746;28;20425;-66
2022/12/06 08:17:45;;;;;;;6.07;3.00;;;3.80;99.90;;;;;;5039392;28;20425;-67
2022/12/06 08:20:11;;;;;;;5.57;3.28;;;3.80;99.90;;;;;;5052538;28;20118;-66
2022/12/06 08:22:37;;;;;;;9.40;4.03;;;3.70;99.90;;;;;;5076163;28;20085;-66
2022/12/06 08:25:03;;;;;;;4.72;3.20;;;3.70;99.90;;;;;;5067235;28;20037;-66
2022/12/06 08:27:28;;;;;;;7.90;3.00;;;3.70;99.90;;;;;;5043689;28;20036;-66
2022/12/06 08:29:54;;;;;;;5.18;3.20;;;3.70;99.90;;;;;;5037511;28;20040;-67
2022/12/06 08:32:20;;;;;;;6.53;3.08;;;3.70;99.90;;;;;;5071033;28;20033;-66
2022/12/06 08:34:45;;;;;;;7.55;3.42;;;3.70;99.90;;;;;;5069678;28;20488;-66
2022/12/06 08:37:11;;;;;;;5.40;3.13;;;3.60;99.90;;;;;;5069284;28;20032;-66
2022/12/06 08:39:36;;;;;;;7.93;4.30;;;3.60;99.90;;;;;;5070111;28;20098;-66
2022/12/06 08:42:05;;;;;;;7.50;3.90;;;3.60;99.90;;;;;;5061361;28;20123;-66
2022/12/06 08:44:31;;;;;;;6.50;3.50;;;3.70;99.90;;;;;;5067219;28;20111;-67
2022/12/06 08:46:59;;;;;;;7.05;3.88;;;3.70;99.90;;;;;;5072659;28;20044;-66
2022/12/06 08:49:26;;;;;;;5.53;3.47;;;3.80;99.90;;;;;;5068247;28;20074;-66
2022/12/06 08:51:52;;;;;;;8.65;3.63;;;3.80;99.90;;;;;;5067543;28;20028;-66
2022/12/06 08:54:20;;;;;;;5.80;3.60;;;3.80;99.90;;;;;;5052521;28;20063;-66
2022/12/06 08:56:46;;;;;;;6.70;3.40;;;3.80;99.90;;;;;;5061203;28;20440;-66
2022/12/06 08:59:12;;;;;;;5.55;3.60;;;3.90;99.90;;;;;;5066794;28;20047;-66
2022/12/06 09:01:38;;;;;;;9.20;4.35;;;4.00;99.90;;;;;;5061780;28;20036;-67
2022/12/06 09:04:05;;;;;;;7.32;3.67;;;4.00;99.90;;;;;;5064397;28;20036;-67
2022/12/06 09:06:31;;;;;;;9.25;3.90;;;4.10;99.90;;;;;;5059061;28;20041;-66
2022/12/06 09:08:57;;;;;;;8.85;3.60;;;4.30;99.90;;;;;;5063292;28;20043;-66
2022/12/06 09:11:24;;;;;;;6.55;3.17;;;4.30;99.90;;;;;;5073047;28;20036;-66
2022/12/06 09:13:50;;;;;;;4.93;3.20;;;4.40;99.90;;;;;;5070993;28;20480;-66
2022/12/06 09:16:19;;;;;;;5.88;3.40;;;4.40;99.90;;;;;;5072597;28;20119;-66
2022/12/06 09:18:45;;;;;;;5.90;2.85;;;4.50;99.90;;;;;;5073003;28;20032;-67
2022/12/06 09:21:19;;;;;;;5.35;3.22;;;4.50;99.90;;;;;;5059895;28;20059;-67
2022/12/06 09:23:45;;;;;;;5.82;3.15;;;4.60;99.90;;;;;;5065362;28;20482;-66
2022/12/06 09:26:11;;;;;;;7.28;3.30;;;4.70;99.90;;;;;;5072168;28;20043;-66
2022/12/06 09:28:39;;;;;;;5.97;3.30;;;4.70;99.90;;;;;;5070179;28;20033;-67
2022/12/06 09:31:06;;;;;;;5.43;3.20;;;4.80;99.90;;;;;;5056329;28;20036;-67
2022/12/06 09:33:33;;;;;;;5.22;2.75;;;4.90;99.90;;;;;;5063456;28;20118;-67
2022/12/06 09:36:05;;;;;;;5.55;3.40;;;5.00;99.90;;;;;;5071401;28;20165;-66
2022/12/06 09:38:34;;;;;;;4.80;2.72;;;5.10;99.90;;;;;;5081898;28;20090;-66
2022/12/06 09:41:31;;;;;;;4.35;2.92;;;5.10;99.90;;;;;;5061466;28;20179;-67
2022/12/06 09:44:23;;;;;;;6.97;3.05;;;5.00;99.90;;;;;;5069746;28;20505;-67
2022/12/06 09:46:58;;;;;;;6.10;3.30;;;5.10;99.90;;;;;;5069793;28;20044;-67
2022/12/06 09:49:35;;;;;;;7.88;3.33;;;5.20;99.90;;;;;;5048836;28;20152;-67
2022/12/06 09:52:07;;;;;;;11.77;3.50;;;5.40;99.90;;;;;;5063562;28;20051;-66
2022/12/06 09:54:59;;;;;;;4.38;2.88;;;5.40;99.90;;;;;;5065940;28;20119;-66
2022/12/06 09:57:36;;;;;;;7.70;3.00;;;5.40;99.90;;;;;;5069703;28;20047;-66
2022/12/06 10:00:12;;;;;;;6.38;2.75;;;5.40;99.90;;;;;;5072355;28;20036;-66
2022/12/06 10:03:17;;;;;;;4.43;2.83;;;5.40;99.90;;;;;;5066309;28;20494;-66
2022/12/06 10:06:01;;;;;;;7.78;2.72;;;5.40;99.90;;;;;;5079665;28;20258;-66
2022/12/06 10:08:51;;;;;;;6.88;2.85;;;5.30;99.90;;;;;;5068096;28;20032;-66
2022/12/06 10:11:44;;;;;;;4.75;2.92;;;5.30;99.90;;;;;;5067207;28;20028;-66
2022/12/06 10:14:27;;;;;;;6.25;2.80;;;5.40;99.90;;;;;;5052780;28;20043;-66
2022/12/06 10:17:17;;;;;;;5.57;2.80;;;5.40;99.90;;;;;;5062723;28;20040;-66
2022/12/06 10:20:09;;;;;;;5.53;2.80;;;5.40;99.90;;;;;;5072438;28;20036;-66
2022/12/06 10:22:57;;;;;;;10.02;2.85;;;5.40;99.90;;;;;;5066789;28;20459;-66
2022/12/06 10:25:44;;;;;;;5.20;2.45;;;5.40;99.90;;;;;;5065031;28;20070;-66
2022/12/06 10:28:21;;;;;;;7.13;3.50;;;5.40;99.90;;;;;;5082378;28;20039;-67
2022/12/06 10:30:54;;;;;;;4.88;2.50;;;5.40;99.90;;;;;;5071928;28;20041;-66
2022/12/06 10:33:49;;;;;;;8.13;2.95;;;5.40;99.90;;;;;;5071119;28;20146;-67
2022/12/06 10:36:25;;;;;;;4.35;2.53;;;5.50;99.90;;;;;;5045360;28;20048;-66
2022/12/06 10:38:58;;;;;;;6.07;2.42;;;5.50;99.90;;;;;;5049530;28;20051;-66
2022/12/06 10:41:32;;;;;;;6.53;2.72;;;5.50;99.90;;;;;;5071379;28;20572;-67
2022/12/06 10:44:13;;;;;;;5.97;3.10;;;5.60;99.90;;;;;;5071774;28;20031;-66
2022/12/06 10:47:05;;;;;;;5.75;2.30;;;5.70;99.90;;;;;;5046270;28;20555;-66
2022/12/06 10:49:40;;;;;;;;;;;5.70;99.90;;;;;;5066555;28;20036;-66
2022/12/06 10:52:40;;;;;;;3.92;2.10;;;5.80;99.90;;;;;;5070845;28;20301;-66
2022/12/06 10:55:08;;;;;;;4.53;2.70;;;5.80;99.90;;;;;;5078105;28;20033;-66
2022/12/06 10:58:05;;;;;;;6.25;2.63;;;5.90;99.90;;;;;;5062137;28;20529;-66
2022/12/06 11:00:38;;;;;;;4.40;2.13;;;6.00;99.90;;;;;;5068438;28;20040;-66
2022/12/06 11:03:07;;;;;;;4.70;2.88;;;6.00;99.90;;;;;;5075755;28;20028;-66
2022/12/06 11:05:46;;;;;;;4.45;2.60;;;6.10;99.90;;;;;;5069521;28;20033;-67
2022/12/06 11:08:24;;;;;;;7.30;2.97;;;6.10;99.90;;;;;;5062316;28;20109;-66
2022/12/06 11:10:53;;;;;;;5.07;2.55;;;6.10;99.90;;;;;;5066572;28;20032;-65
2022/12/06 11:13:41;;;;;;;4.22;2.60;;;6.10;99.90;;;;;;5065999;28;20037;-65
2022/12/06 11:16:29;;;;;;;6.65;2.63;;;6.20;99.90;;;;;;5058677;28;20052;-66
2022/12/06 11:19:03;;;;;;;5.53;2.35;;;6.30;99.90;;;;;;5045904;28;20040;-67
2022/12/06 11:21:38;;;;;;;5.43;2.40;;;6.30;99.90;;;;;;5078356;28;20486;-67
2022/12/06 11:24:34;;;;;;;2.90;2.28;;;6.30;99.90;;;;;;5067646;28;20032;-66
2022/12/06 11:27:12;;;;;;;4.93;2.58;;;6.30;99.90;;;;;;5081961;28;20047;-66
2022/12/06 11:29:37;;;;;;;4.70;2.25;;;6.30;99.90;;;;;;5080671;28;20556;-67
2022/12/06 11:32:06;;;;;;;3.38;2.30;;;6.40;99.90;;;;;;5073215;28;20119;-67
2022/12/06 11:34:47;;;;;;;4.63;2.50;;;6.40;99.90;;;;;;5076972;28;20068;-67
2022/12/06 11:37:19;;;;;;;4.53;2.10;;;6.50;99.90;;;;;;5069853;28;20133;-67
2022/12/06 11:39:46;;;;;;;3.65;1.98;;;6.50;99.90;;;;;;5054371;28;20055;-67
2022/12/06 11:42:15;;;;;;;4.18;2.40;;;6.50;99.90;;;;;;5073977;28;20039;-67
2022/12/06 11:44:45;;;;;;;5.03;2.33;;;6.50;99.90;;;;;;5072795;28;20043;-67
2022/12/06 11:47:16;;;;;;;5.10;1.95;;;6.50;99.90;;;;;;5058736;28;20419;-67
2022/12/06 11:49:43;;;;;;;6.68;2.00;;;6.40;99.90;;;;;;5066820;28;20031;-67
2022/12/06 11:52:27;;;;;;;4.07;2.20;;;6.40;99.90;;;;;;5083556;28;20566;-67
2022/12/06 11:55:04;;;;;;;6.63;2.38;;;6.50;99.90;;;;;;5075853;28;20059;-67
2022/12/06 11:57:39;;;;;;;3.58;2.30;;;6.40;99.90;;;;;;5069345;28;20048;-67
2022/12/06 12:00:07;;;;;;;4.88;2.30;;;6.50;99.90;;;;;;5058405;28;20041;-67
2022/12/06 12:02:33;;;;;;;4.35;2.25;;;6.50;99.90;;;;;;5063244;28;20041;-66
2022/12/06 12:05:33;;;;;;;5.13;2.35;;;6.50;99.90;;;;;;5063475;28;20051;-66
2022/12/06 12:08:18;;;;;;;4.05;2.05;;;6.50;99.90;;;;;;5045728;28;20125;-67
2022/12/06 12:10:45;;;;;;;4.13;1.95;;;6.60;99.90;;;;;;5063330;28;20028;-67
2022/12/06 12:16:21;;;;;;;3.88;1.75;;;6.70;99.90;;;;;;5057197;28;20406;-67
2022/12/06 12:19:01;;;;;;;3.38;2.15;;;6.70;99.90;;;;;;5070250;28;20086;-67
2022/12/06 12:21:40;;;;;;;4.00;2.10;;;6.70;99.90;;;;;;5069312;28;20119;-67
2022/12/06 12:24:37;;;;;;;3.00;2.15;;;6.70;99.90;;;;;;5061423;28;20036;-67
2022/12/06 12:27:30;;;;;;;3.08;2.10;;;6.70;99.90;;;;;;5078225;28;20090;-67
2022/12/06 12:30:14;;;;;;;4.40;2.33;;;6.70;99.90;;;;;;5063688;28;20044;-67
2022/12/06 12:32:44;;;;;;;4.55;2.00;;;6.70;99.90;;;;;;5074625;22;20045;-63
2022/12/06 12:35:19;;;;;;;2.53;2.08;;;6.80;99.90;;;;;;5057883;28;20037;-63
2022/12/06 12:37:50;;;;;;;7.15;1.95;;;6.70;99.90;;;;;;5065049;28;20099;-63
2022/12/06 12:40:28;;;;;;;4.22;1.70;;;6.80;99.90;;;;;;5067070;28;20032;-64
2022/12/06 12:43:05;;;;;;;3.22;2.03;;;6.70;99.90;;;;;;5059242;28;20508;-64
2022/12/06 12:45:31;;;;;;;4.35;2.03;;;6.70;99.90;;;;;;5067208;28;20621;-63
2022/12/06 12:48:02;;;;;;;3.65;2.05;;;6.70;99.90;;;;;;5066443;28;20040;-63
2022/12/06 12:50:30;;;;;;;5.05;2.17;;;6.70;99.90;;;;;;5063760;28;20036;-63
2022/12/06 12:52:57;;;;;;;5.40;2.10;;;6.60;99.90;;;;;;5070786;28;20075;-63
2022/12/06 12:55:28;;;;;;;5.30;1.90;;;6.60;99.90;;;;;;5070494;28;20040;-63
2022/12/06 12:57:57;;;;;;;6.30;2.03;;;6.60;99.90;;;;;;5073634;28;20051;-63
2022/12/06 13:00:28;;;;;;;3.67;1.75;;;6.70;99.90;;;;;;5069241;28;20032;-64
2022/12/06 13:02:59;;;;;;;3.40;1.58;;;6.70;99.90;;;;;;5064324;28;20044;-63
2022/12/06 13:05:31;;;;;;;5.30;2.10;;;6.70;99.90;;;;;;5072782;28;20119;-63
2022/12/06 13:08:18;;;;;;;2.67;1.88;;;6.70;99.90;;;;;;5073531;28;20040;-63
2022/12/06 13:10:47;;;;;;;4.78;2.08;;;6.70;99.90;;;;;;5065165;28;20353;-64
2022/12/06 13:13:25;;;;;;;5.53;2.10;;;6.70;99.90;;;;;;5070261;28;20029;-63
2022/12/06 13:15:54;;;;;;;4.47;2.00;;;6.70;99.90;;;;;;5069525;28;20055;-63
2022/12/06 13:18:27;;;;;;;3.33;1.83;;;6.80;99.90;;;;;;5058996;28;20115;-63
2022/12/06 13:20:57;;;;;;;4.20;1.95;;;6.80;99.90;;;;;;5061335;28;20036;-63
2022/12/06 13:23:27;;;;;;;3.35;2.05;;;6.80;99.90;;;;;;5059719;28;20043;-63
2022/12/06 13:26:17;;;;;;;3.85;1.65;;;6.70;99.90;;;;;;5066498;28;20044;-62
2022/12/06 13:28:49;;;;;;;4.18;2.03;;;6.70;99.90;;;;;;5066669;28;20119;-63
2022/12/06 13:31:18;;;;;;;5.47;1.92;;;6.70;99.90;;;;;;5069114;28;20036;-63
2022/12/06 13:33:49;;;;;;;3.78;2.28;;;6.70;99.90;;;;;;5065510;28;20452;-63
2022/12/06 13:36:17;;;;;;;5.70;1.80;;;6.60;99.90;;;;;;5070343;28;20047;-63
2022/12/06 13:38:43;;;;;;;4.72;2.20;;;6.60;99.90;;;;;;5072947;28;20036;-63